Time;durP1;ratioP1;P1;durP2;ratioP2;P2;SDS_P1;SDS_P2;PMS_P1;PMS_P2;Temp;Humidity;BMP_temperature;BMP_pressure;BME280_temperature;BME280_humidity;BME280_pressure;Samples;Min_cycle;Max_cycle;Signal;HPM_P1;HPM_P2
2023/01/04 00:01:04;;;;;;;0.63;0.60;;;1.50;99.90;;;;;;5095255;28;20451;-80
2023/01/04 00:04:07;;;;;;;1.55;0.75;;;1.50;99.90;;;;;;5086932;28;20099;-80
2023/01/04 00:07:10;;;;;;;1.67;0.82;;;1.50;99.90;;;;;;5099570;28;20020;-80
2023/01/04 00:09:54;;;;;;;0.60;0.60;;;1.50;99.90;;;;;;5098913;28;20027;-78
2023/01/04 00:12:58;;;;;;;0.45;0.45;;;1.60;99.90;;;;;;5106422;28;20381;-79
2023/01/04 00:16:01;;;;;;;1.13;1.05;;;1.60;99.90;;;;;;5094197;28;20030;-79
2023/01/04 00:18:28;;;;;;;1.13;0.52;;;1.60;99.90;;;;;;5116051;28;20047;-80
2023/01/04 00:21:31;;;;;;;1.23;0.80;;;1.60;99.90;;;;;;5116047;28;20047;-81
2023/01/04 00:24:34;;;;;;;0.85;0.70;;;1.60;99.90;;;;;;5100828;28;20484;-77
2023/01/04 00:27:19;;;;;;;1.73;0.70;;;1.70;99.90;;;;;;5095109;28;20055;-81
2023/01/04 00:30:22;;;;;;;0.60;0.40;;;1.70;99.90;;;;;;5101720;28;20039;-78
2023/01/04 00:33:25;;;;;;;0.50;0.45;;;1.60;99.90;;;;;;5115531;28;20015;-79
2023/01/04 00:36:28;;;;;;;1.15;0.65;;;1.60;99.90;;;;;;5087984;28;20030;-80
2023/01/04 00:39:13;;;;;;;0.90;0.55;;;1.50;99.90;;;;;;5114934;28;20108;-80
2023/01/04 00:42:05;;;;;;;0.50;0.50;;;1.40;99.90;;;;;;5094764;28;20023;-78
2023/01/04 00:45:08;;;;;;;0.70;0.70;;;1.40;99.90;;;;;;5094884;28;20024;-79
2023/01/04 00:47:52;;;;;;;1.33;1.20;;;1.30;99.90;;;;;;5106574;28;20054;-78
2023/01/04 00:50:56;;;;;;;2.72;1.95;;;1.00;99.90;;;;;;5082510;28;20031;-78
2023/01/04 00:53:59;;;;;;;3.38;2.20;;;0.70;99.90;;;;;;5113764;28;20023;-79
2023/01/04 00:56:43;;;;;;;3.17;2.58;;;0.60;99.90;;;;;;5126141;28;20035;-78
2023/01/04 00:59:28;;;;;;;3.95;2.28;;;0.50;99.90;;;;;;5113641;28;20020;-79
2023/01/04 01:02:31;;;;;;;2.65;2.30;;;0.40;99.90;;;;;;5114843;28;20028;-79
2023/01/04 01:05:34;;;;;;;4.72;3.10;;;0.30;99.90;;;;;;5084930;28;20551;-78
2023/01/04 01:08:25;;;;;;;4.07;3.08;;;0.20;99.90;;;;;;5114866;28;20027;-78
2023/01/04 01:11:28;;;;;;;4.10;3.22;;;0.20;99.90;;;;;;5090122;28;20031;-78
2023/01/04 01:14:32;;;;;;;7.78;3.15;;;0.10;99.90;;;;;;5110409;28;20020;-78
2023/01/04 01:16:57;;;;;;;5.60;2.85;;;0.00;99.90;;;;;;5095928;28;20028;-79
2023/01/04 01:19:26;;;;;;;6.95;3.25;;;-0.10;99.90;;;;;;5115593;28;20069;-79
2023/01/04 01:22:30;;;;;;;5.50;3.42;;;-0.20;99.90;;;;;;5114397;28;20027;-79
2023/01/04 01:25:33;;;;;;;4.03;2.38;;;-0.20;99.90;;;;;;5096718;28;20023;-79
2023/01/04 01:28:36;;;;;;;4.10;2.55;;;-0.30;99.90;;;;;;5090697;28;20400;-80
2023/01/04 01:31:06;;;;;;;4.13;3.00;;;-0.40;99.90;;;;;;5081283;28;20032;-79
2023/01/04 01:34:10;;;;;;;3.30;2.60;;;-0.50;99.90;;;;;;5105307;28;20027;-79
2023/01/04 01:36:54;;;;;;;3.90;2.40;;;-0.70;99.90;;;;;;5103375;28;20177;-79
2023/01/04 01:39:39;;;;;;;3.97;2.60;;;-0.90;99.90;;;;;;5103681;28;20375;-79
2023/01/04 01:42:23;;;;;;;6.45;3.25;;;-1.00;99.90;;;;;;5113289;28;20503;-79
2023/01/04 01:45:27;;;;;;;7.32;3.38;;;-1.00;99.90;;;;;;5073368;28;20028;-80
2023/01/04 01:48:30;;;;;;;3.97;3.13;;;-1.00;99.90;;;;;;5108519;28;20042;-80
2023/01/04 01:51:33;;;;;;;4.63;3.22;;;-1.00;99.90;;;;;;5085447;28;20035;-78
2023/01/04 01:54:19;;;;;;;5.65;3.53;;;-1.00;99.90;;;;;;5102266;28;20035;-78
2023/01/04 01:57:22;;;;;;;4.38;3.20;;;-1.00;99.90;;;;;;5091353;28;20038;-79
2023/01/04 02:00:26;;;;;;;6.63;3.40;;;-1.00;99.90;;;;;;5099780;28;20357;-79
2023/01/04 02:03:20;;;;;;;4.30;2.97;;;-1.00;99.90;;;;;;5117181;28;20422;-80
2023/01/04 02:06:23;;;;;;;4.57;3.20;;;-1.00;99.90;;;;;;5105548;28;20028;-80
2023/01/04 02:09:08;;;;;;;4.57;3.28;;;-1.00;99.90;;;;;;5089942;28;20027;-79
2023/01/04 02:12:11;;;;;;;3.67;3.08;;;-1.00;99.90;;;;;;5108844;28;20554;-80
2023/01/04 02:14:56;;;;;;;5.13;3.28;;;-1.10;99.90;;;;;;5093098;28;20493;-79
2023/01/04 02:17:59;;;;;;;4.55;2.97;;;-1.10;99.90;;;;;;5096501;28;20016;-80
2023/01/04 02:21:03;;;;;;;3.85;2.30;;;-1.20;99.90;;;;;;5111989;28;20384;-80
2023/01/04 02:24:05;;;;;;;5.07;4.57;;;-1.20;99.90;;;;;;5100138;28;20016;-78
2023/01/04 02:27:09;;;;;;;5.05;3.80;;;-1.20;99.90;;;;;;5093623;28;20039;-79
2023/01/04 02:30:12;;;;;;;4.10;2.90;;;-1.20;99.90;;;;;;5093135;28;20496;-80
2023/01/04 02:33:04;;;;;;;2.63;2.25;;;-1.20;99.90;;;;;;5113291;28;20110;-80
2023/01/04 02:35:58;;;;;;;3.75;2.95;;;-1.20;99.90;;;;;;5113312;28;20089;-79
2023/01/04 02:38:59;;;;;;;4.03;3.30;;;-1.30;99.90;;;;;;5095243;28;20039;-80
2023/01/04 02:41:42;;;;;;;8.98;3.25;;;-1.30;99.90;;;;;;5096409;28;20045;-79
2023/01/04 02:44:56;;;;;;;4.50;2.95;;;-1.30;99.90;;;;;;5098700;28;20024;-79
2023/01/04 02:50:31;;;;;;;6.78;4.05;;;-1.30;99.90;;;;;;5089463;28;20495;-79
2023/01/04 02:53:22;;;;;;;6.30;4.35;;;-1.20;99.90;;;;;;5096911;28;20024;-79
2023/01/04 02:56:18;;;;;;;8.52;4.60;;;-1.30;99.90;;;;;;5106231;28;20054;-80
2023/01/04 02:58:53;;;;;;;5.88;3.92;;;-1.20;99.90;;;;;;5106001;28;20036;-80
2023/01/04 03:08:05;;;;;;;6.82;4.68;;;-1.20;99.90;;;;;;5096620;28;20482;-79
2023/01/04 03:10:43;;;;;;;4.72;3.63;;;-1.20;99.90;;;;;;5079732;28;20035;-78
2023/01/04 03:13:24;;;;;;;10.15;5.00;;;-1.20;99.90;;;;;;5109191;28;20020;-81
2023/01/04 03:16:06;;;;;;;4.18;2.95;;;-1.30;99.90;;;;;;5093314;28;20055;-80
2023/01/04 03:18:40;;;;;;;5.68;3.45;;;-1.30;99.90;;;;;;5107445;28;20020;-79
2023/01/04 03:21:08;;;;;;;5.43;3.30;;;-1.40;99.90;;;;;;5113216;28;20020;-81
2023/01/04 03:35:36;;;;;;;7.95;3.63;;;-1.40;99.90;;;;;;5101927;28;20027;-79
2023/01/04 03:50:40;;;;;;;3.40;2.65;;;-1.50;99.90;;;;;;5088690;28;20059;-81
2023/01/04 03:53:08;;;;;;;5.03;2.95;;;-1.50;99.90;;;;;;5081525;28;20012;-79
2023/01/04 03:55:37;;;;;;;5.07;3.45;;;-1.40;99.90;;;;;;5112765;28;20069;-81
2023/01/04 03:58:03;;;;;;;3.08;2.45;;;-1.40;99.90;;;;;;5108162;28;20543;-79
2023/01/04 04:00:29;;;;;;;3.88;2.85;;;-1.40;99.90;;;;;;5106641;28;20102;-81
2023/01/04 04:03:06;;;;;;;4.45;2.70;;;-1.40;99.90;;;;;;5099802;28;20032;-80
2023/01/04 04:08:28;;;;;;;3.60;2.90;;;-1.40;99.90;;;;;;5115213;28;20026;-79
2023/01/04 04:13:45;;;;;;;5.95;3.80;;;-1.30;99.90;;;;;;5114172;28;20023;-80
2023/01/04 04:16:11;;;;;;;5.10;2.97;;;-1.30;99.90;;;;;;5105449;28;20046;-79
2023/01/04 04:18:37;;;;;;;6.75;2.80;;;-1.30;99.90;;;;;;5115403;28;20035;-81
2023/01/04 04:21:03;;;;;;;4.72;3.38;;;-1.30;99.90;;;;;;5089661;28;20038;-80
2023/01/04 04:23:29;;;;;;;5.15;2.92;;;-1.30;99.90;;;;;;5108514;28;20024;-80
2023/01/04 04:25:55;;;;;;;3.92;2.88;;;-1.30;99.90;;;;;;5110186;28;20497;-84
2023/01/04 04:28:20;;;;;;;4.35;3.45;;;-1.30;99.90;;;;;;5108288;27;20137;-81
2023/01/04 04:30:50;;;;;;;3.30;2.42;;;-1.30;99.90;;;;;;5096957;28;20111;-81
2023/01/04 04:33:16;;;;;;;7.40;2.85;;;-1.30;99.90;;;;;;5096056;28;20150;-83
2023/01/04 04:35:42;;;;;;;8.40;3.90;;;-1.30;99.90;;;;;;5095657;28;20024;-81
2023/01/04 04:38:08;;;;;;;5.07;3.45;;;-1.30;99.90;;;;;;5100268;28;20031;-81
2023/01/04 04:43:18;;;;;;;5.20;3.47;;;-1.30;99.90;;;;;;5103188;28;20035;-82
2023/01/04 04:45:44;;;;;;;3.97;2.92;;;-1.30;99.90;;;;;;5103498;28;20032;-82
2023/01/04 04:48:10;;;;;;;3.65;3.05;;;-1.30;99.90;;;;;;5097118;28;20479;-81
2023/01/04 04:50:36;;;;;;;4.45;3.22;;;-1.30;99.90;;;;;;5110905;28;20067;-83
2023/01/04 04:53:02;;;;;;;7.80;3.60;;;-1.30;99.90;;;;;;5099951;28;20091;-85
2023/01/04 04:55:28;;;;;;;3.83;2.72;;;-1.30;99.90;;;;;;5108008;28;20031;-82
2023/01/04 04:57:56;;;;;;;3.70;2.63;;;-1.30;99.90;;;;;;5104574;28;20832;-83
2023/01/04 05:00:23;;;;;;;3.28;2.60;;;-1.30;99.90;;;;;;5099473;28;20031;-83
2023/01/04 05:02:48;;;;;;;4.18;2.83;;;-1.30;99.90;;;;;;5110411;28;20108;-84
2023/01/04 05:05:14;;;;;;;5.28;2.85;;;-1.30;99.90;;;;;;5095474;28;20497;-81
2023/01/04 05:07:40;;;;;;;7.22;2.97;;;-1.40;99.90;;;;;;5095278;28;20477;-80
2023/01/04 05:10:06;;;;;;;4.13;2.63;;;-1.30;99.90;;;;;;5092745;28;20032;-82
2023/01/04 05:15:18;;;;;;;4.38;2.92;;;-1.40;99.90;;;;;;5100581;28;20067;-80
2023/01/04 05:17:44;;;;;;;3.58;2.40;;;-1.40;99.90;;;;;;5097474;28;20460;-81
2023/01/04 05:20:10;;;;;;;8.90;4.13;;;-1.40;99.90;;;;;;5098546;28;20032;-81
2023/01/04 05:22:36;;;;;;;4.45;2.75;;;-1.40;99.90;;;;;;5094935;28;20026;-80
2023/01/04 05:25:01;;;;;;;3.30;1.80;;;-1.30;99.90;;;;;;5094683;28;20033;-81
2023/01/04 05:27:27;;;;;;;3.55;2.20;;;-1.40;99.90;;;;;;5093893;28;20044;-80
2023/01/04 05:32:37;;;;;;;3.00;1.80;;;-1.70;99.90;;;;;;5103670;28;20038;-80
2023/01/04 05:35:03;;;;;;;4.10;2.28;;;-1.70;99.90;;;;;;5098194;28;20452;-80
2023/01/04 05:37:29;;;;;;;3.13;2.28;;;-1.70;99.90;;;;;;5095015;28;20089;-80
2023/01/04 05:39:55;;;;;;;2.60;2.25;;;-1.80;99.90;;;;;;5095785;28;20024;-82
2023/01/04 05:42:24;;;;;;;6.05;2.75;;;-1.80;99.90;;;;;;5094181;28;20028;-80
2023/01/04 05:44:55;;;;;;;6.30;2.50;;;-1.80;99.90;;;;;;5099335;28;20039;-78
2023/01/04 05:47:21;;;;;;;5.60;2.50;;;-1.80;99.90;;;;;;5094183;28;20052;-78
2023/01/04 05:49:47;;;;;;;3.67;2.30;;;-1.80;99.90;;;;;;5093936;28;20082;-79
2023/01/04 05:52:13;;;;;;;4.10;1.95;;;-1.80;99.90;;;;;;5094292;28;20012;-79
2023/01/04 05:54:39;;;;;;;4.45;3.10;;;-1.80;99.90;;;;;;5094655;28;20035;-79
2023/01/04 05:57:11;;;;;;;3.08;2.45;;;-1.80;99.90;;;;;;5102139;28;20016;-79
2023/01/04 05:59:37;;;;;;;5.13;2.03;;;-1.80;99.90;;;;;;5097021;28;20031;-78
2023/01/04 06:02:06;;;;;;;3.58;2.40;;;-1.80;99.90;;;;;;5093643;28;20035;-78
2023/01/04 06:04:31;;;;;;;5.68;2.67;;;-1.80;99.90;;;;;;5093361;28;20031;-75
2023/01/04 06:06:57;;;;;;;2.53;1.67;;;-1.80;99.90;;;;;;5093854;28;20350;-78
2023/01/04 06:09:25;;;;;;;3.80;2.60;;;-1.80;99.90;;;;;;5097576;28;20122;-78
2023/01/04 06:11:51;;;;;;;7.05;3.00;;;-1.70;99.90;;;;;;5092431;28;20024;-78
2023/01/04 06:14:17;;;;;;;4.53;2.22;;;-1.70;99.90;;;;;;5101016;28;20496;-78
2023/01/04 06:16:42;;;;;;;2.78;1.92;;;-1.60;99.90;;;;;;5100040;28;20020;-79
2023/01/04 06:19:11;;;;;;;5.57;2.45;;;-1.60;99.90;;;;;;5093192;28;20020;-78
2023/01/04 06:21:37;;;;;;;4.70;2.53;;;-1.70;99.90;;;;;;5090488;28;20433;-80
2023/01/04 06:24:03;;;;;;;3.63;2.03;;;-1.80;99.90;;;;;;5090998;28;20050;-79
2023/01/04 06:26:29;;;;;;;2.42;1.80;;;-1.80;99.90;;;;;;5093835;28;20040;-80
2023/01/04 06:28:54;;;;;;;3.25;2.28;;;-1.80;99.90;;;;;;5090870;28;20401;-82
2023/01/04 06:31:20;;;;;;;4.25;1.90;;;-1.80;99.90;;;;;;5091039;28;20423;-82
2023/01/04 06:33:46;;;;;;;5.35;2.92;;;-1.80;99.90;;;;;;5102567;28;20455;-81
2023/01/04 06:36:12;;;;;;;3.83;2.38;;;-1.90;99.90;;;;;;5093362;28;20024;-83
2023/01/04 06:38:38;;;;;;;3.83;2.33;;;-1.90;99.90;;;;;;5108861;28;20034;-84
2023/01/04 06:41:04;;;;;;;4.93;2.22;;;-1.90;99.90;;;;;;5095332;28;20057;-81
2023/01/04 06:43:30;;;;;;;4.15;2.38;;;-1.90;99.90;;;;;;5091916;28;20028;-83
2023/01/04 06:45:56;;;;;;;4.57;2.90;;;-1.90;99.90;;;;;;5084314;28;20028;-80
2023/01/04 06:48:21;;;;;;;2.85;2.33;;;-1.90;99.90;;;;;;5098308;28;20469;-83
2023/01/04 06:50:47;;;;;;;5.20;2.97;;;-1.90;99.90;;;;;;5110254;28;20027;-82
2023/01/04 06:53:13;;;;;;;5.30;2.67;;;-2.00;99.90;;;;;;5094974;28;20054;-81
2023/01/04 06:55:39;;;;;;;4.22;3.03;;;-1.90;99.90;;;;;;5105116;28;20043;-82
2023/01/04 06:58:05;;;;;;;2.88;2.20;;;-2.00;99.90;;;;;;5108530;28;20048;-83
2023/01/04 07:00:31;;;;;;;6.63;2.70;;;-2.00;99.90;;;;;;5102883;28;20513;-81
2023/01/04 07:02:56;;;;;;;5.72;3.00;;;-2.00;99.90;;;;;;5110405;28;20020;-85
2023/01/04 07:05:22;;;;;;;4.97;3.03;;;-2.00;99.90;;;;;;5116217;28;20009;-85
2023/01/04 07:07:48;;;;;;;4.53;2.25;;;-2.00;99.90;;;;;;5104883;28;20016;-82
2023/01/04 07:10:14;;;;;;;4.68;2.30;;;-2.00;99.90;;;;;;5092982;28;20036;-82
2023/01/04 07:12:40;;;;;;;4.00;2.75;;;-2.00;99.90;;;;;;5095524;28;20074;-83
2023/01/04 07:15:06;;;;;;;6.50;3.05;;;-2.00;99.90;;;;;;5095655;28;20024;-81
2023/01/04 07:17:32;;;;;;;2.40;2.08;;;-2.00;99.90;;;;;;5117498;28;20020;-81
2023/01/04 07:19:58;;;;;;;4.05;2.60;;;-2.10;99.90;;;;;;5111053;28;20361;-80
2023/01/04 07:22:24;;;;;;;4.18;3.38;;;-2.20;99.90;;;;;;5098473;28;20069;-80
2023/01/04 07:24:50;;;;;;;3.50;2.63;;;-2.30;99.90;;;;;;5108348;28;20032;-84
2023/01/04 07:27:15;;;;;;;5.15;2.80;;;-2.20;99.90;;;;;;5093807;28;20048;-82
2023/01/04 07:29:43;;;;;;;4.45;2.25;;;-2.20;99.90;;;;;;5090033;28;20024;-82
2023/01/04 07:32:11;;;;;;;3.33;2.03;;;-2.10;99.90;;;;;;5096560;28;20024;-84
2023/01/04 07:34:38;;;;;;;3.47;1.95;;;-2.10;99.90;;;;;;5099130;28;20116;-82
2023/01/04 07:37:06;;;;;;;3.75;2.72;;;-2.10;99.90;;;;;;5106586;28;20118;-81
2023/01/04 07:39:31;;;;;;;4.90;3.03;;;-2.10;99.90;;;;;;5104799;28;20016;-80
2023/01/04 07:41:57;;;;;;;3.58;2.55;;;-2.10;99.90;;;;;;5112997;28;20076;-80
2023/01/04 07:44:27;;;;;;;3.42;2.38;;;-2.20;99.90;;;;;;5109796;28;20020;-81
2023/01/04 07:46:53;;;;;;;2.95;2.15;;;-2.20;99.90;;;;;;5113179;28;20392;-80
2023/01/04 07:49:19;;;;;;;4.05;2.80;;;-2.20;99.90;;;;;;5113644;28;20037;-80
2023/01/04 07:51:46;;;;;;;3.00;2.45;;;-2.30;99.90;;;;;;5110158;28;20023;-82
2023/01/04 07:54:14;;;;;;;3.63;2.58;;;-2.30;99.90;;;;;;5100048;28;20036;-81
2023/01/04 07:56:40;;;;;;;5.10;2.53;;;-2.30;99.90;;;;;;5103806;28;20123;-81
2023/01/04 07:59:07;;;;;;;3.03;2.30;;;-2.30;99.90;;;;;;5096415;28;20112;-82
2023/01/04 08:01:36;;;;;;;2.08;1.83;;;-2.30;99.50;;;;;;5085917;28;20095;-81
2023/01/04 08:04:03;;;;;;;2.78;2.17;;;-2.40;99.40;;;;;;5110148;28;20020;-79
2023/01/04 08:06:36;;;;;;;4.20;3.13;;;-2.40;99.60;;;;;;5098741;28;20056;-85
2023/01/04 08:09:03;;;;;;;2.58;2.13;;;-2.40;99.80;;;;;;5113289;28;20042;-80
2023/01/04 08:11:30;;;;;;;4.32;2.75;;;-2.40;99.70;;;;;;5100654;28;20035;-80
2023/01/04 08:13:56;;;;;;;3.60;2.80;;;-2.50;99.50;;;;;;5096450;28;20020;-81
2023/01/04 08:16:31;;;;;;;4.50;3.38;;;-2.50;99.50;;;;;;5096012;28;20028;-79
2023/01/04 08:19:02;;;;;;;4.82;3.60;;;-2.50;99.60;;;;;;5097303;28;20023;-81
2023/01/04 08:21:29;;;;;;;3.10;2.80;;;-2.50;99.70;;;;;;5099467;28;20024;-82
2023/01/04 08:23:59;;;;;;;4.18;2.92;;;-2.50;99.60;;;;;;5100794;28;20060;-83
2023/01/04 08:26:25;;;;;;;5.63;4.35;;;-2.50;99.60;;;;;;5100742;28;20046;-83
2023/01/04 08:28:51;;;;;;;5.53;3.35;;;-2.50;99.50;;;;;;5105191;28;20439;-85
2023/01/04 08:31:35;;;;;;;5.65;2.90;;;-2.50;99.50;;;;;;5097299;28;20416;-83
2023/01/04 08:34:04;;;;;;;4.82;4.10;;;-2.50;99.80;;;;;;5095643;28;20016;-81
2023/01/04 08:36:33;;;;;;;5.90;4.55;;;-2.50;99.80;;;;;;5110968;28;20020;-81
2023/01/04 08:39:01;;;;;;;6.55;4.53;;;-2.40;99.80;;;;;;5106179;28;20072;-81
2023/01/04 08:41:28;;;;;;;6.25;4.47;;;-2.40;99.90;;;;;;5097275;28;20111;-82
2023/01/04 08:43:54;;;;;;;9.13;4.88;;;-2.30;99.90;;;;;;5094208;28;20036;-81
2023/01/04 08:46:23;;;;;;;8.18;6.22;;;-2.30;99.90;;;;;;5096008;28;20103;-81
2023/01/04 08:48:51;;;;;;;8.60;5.72;;;-2.30;99.70;;;;;;5095534;28;20059;-82
2023/01/04 08:51:17;;;;;;;9.98;6.43;;;-2.30;99.60;;;;;;5095174;28;20104;-81
2023/01/04 08:53:43;;;;;;;9.60;7.55;;;-2.40;99.30;;;;;;5098231;28;20066;-81
2023/01/04 08:56:10;;;;;;;11.23;6.07;;;-2.40;99.00;;;;;;5102208;28;20102;-81
2023/01/04 08:58:37;;;;;;;8.77;6.50;;;-2.50;99.00;;;;;;5098842;28;20338;-84
2023/01/04 09:01:09;;;;;;;7.80;6.45;;;-2.60;99.00;;;;;;5091337;28;20048;-82
2023/01/04 09:03:37;;;;;;;9.20;7.57;;;-2.60;99.00;;;;;;5113699;28;20053;-81
2023/01/04 09:06:13;;;;;;;9.70;7.45;;;-2.70;98.90;;;;;;5121462;28;20037;-81
2023/01/04 09:08:40;;;;;;;11.52;7.95;;;-2.70;99.00;;;;;;5087037;28;20103;-81
2023/01/04 09:11:14;;;;;;;12.30;7.03;;;-2.70;98.70;;;;;;5092975;28;20028;-83
2023/01/04 09:13:40;;;;;;;12.73;8.80;;;-2.70;98.80;;;;;;5103578;28;20032;-82
2023/01/04 09:16:12;;;;;;;7.78;6.10;;;-2.70;98.80;;;;;;5102296;28;20019;-83
2023/01/04 09:18:38;;;;;;;12.15;8.05;;;-2.70;99.20;;;;;;5113260;28;20032;-82
2023/01/04 09:21:10;;;;;;;10.25;7.53;;;-2.60;99.10;;;;;;5100957;28;20024;-82
2023/01/04 09:23:36;;;;;;;12.30;8.23;;;-2.60;99.10;;;;;;5101347;28;20473;-80
2023/01/04 09:26:11;;;;;;;12.63;8.57;;;-2.60;99.10;;;;;;5109620;28;20035;-83
2023/01/04 09:28:38;;;;;;;16.13;9.75;;;-2.40;99.30;;;;;;5091994;28;20056;-83
2023/01/04 09:31:20;;;;;;;12.27;8.55;;;-2.40;99.40;;;;;;5106713;28;20065;-81
2023/01/04 09:33:46;;;;;;;10.70;8.18;;;-2.30;99.10;;;;;;5093718;28;20085;-81
2023/01/04 09:36:17;;;;;;;16.38;9.93;;;-2.30;98.80;;;;;;5092988;28;20476;-82
2023/01/04 09:38:43;;;;;;;14.30;10.10;;;-2.20;99.00;;;;;;5097311;28;20024;-81
2023/01/04 09:41:12;;;;;;;11.05;7.32;;;-2.20;99.00;;;;;;5108483;28;20420;-83
2023/01/04 09:44:10;;;;;;;16.42;8.10;;;-2.10;98.90;;;;;;5095032;28;20027;-83
2023/01/04 09:46:50;;;;;;;11.95;7.95;;;-2.10;98.50;;;;;;5087944;28;20393;-82
2023/01/04 09:49:30;;;;;;;14.98;10.48;;;-2.10;98.30;;;;;;5113875;28;20107;-83
2023/01/04 09:52:04;;;;;;;10.88;9.18;;;-2.20;98.20;;;;;;5112775;28;20559;-81
2023/01/04 09:54:43;;;;;;;12.68;7.20;;;-2.20;97.90;;;;;;5111566;28;20437;-82
2023/01/04 09:57:27;;;;;;;8.07;5.97;;;-2.20;98.00;;;;;;5113165;28;20026;-82
2023/01/04 10:00:27;;;;;;;10.55;7.07;;;-2.20;97.60;;;;;;5099418;28;20395;-83
2023/01/04 10:03:11;;;;;;;7.47;6.07;;;-2.20;97.30;;;;;;5102067;28;20033;-82
2023/01/04 10:05:37;;;;;;;8.55;5.80;;;-2.20;97.10;;;;;;5089905;28;20016;-83
2023/01/04 10:08:03;;;;;;;9.00;6.00;;;-2.30;96.90;;;;;;5096397;28;20024;-84
2023/01/04 10:10:40;;;;;;;5.97;4.53;;;-2.40;96.80;;;;;;5114232;28;20046;-82
2023/01/04 10:13:22;;;;;;;7.35;5.68;;;-2.30;97.00;;;;;;5105887;28;20028;-81
2023/01/04 10:16:15;;;;;;;10.80;6.18;;;-2.30;97.10;;;;;;5095976;28;20016;-82
2023/01/04 10:19:04;;;;;;;15.35;7.28;;;-2.20;97.20;;;;;;5096679;28;20472;-84
2023/01/04 10:21:55;;;;;;;9.10;6.13;;;-2.10;97.20;;;;;;5096721;28;20023;-81
2023/01/04 10:24:36;;;;;;;11.88;6.47;;;-2.10;97.10;;;;;;5067415;28;20024;-83
2023/01/04 10:27:11;;;;;;;8.45;7.05;;;-2.10;97.10;;;;;;5095149;28;20147;-81
2023/01/04 10:29:38;;;;;;;9.70;5.78;;;-2.00;97.00;;;;;;5110615;28;20028;-83
2023/01/04 10:32:38;;;;;;;10.25;6.72;;;-2.00;97.00;;;;;;5111234;28;20033;-81
2023/01/04 10:35:20;;;;;;;10.70;6.35;;;-2.00;97.00;;;;;;5083201;28;20554;-82
2023/01/04 10:37:49;;;;;;;9.18;6.32;;;-2.00;97.00;;;;;;5106227;28;20318;-82
2023/01/04 10:40:17;;;;;;;10.48;6.50;;;-2.00;97.00;;;;;;5089060;28;20055;-82
2023/01/04 10:43:01;;;;;;;11.18;6.90;;;-1.90;97.20;;;;;;5104815;28;20051;-82
2023/01/04 10:45:49;;;;;;;12.02;6.03;;;-1.80;97.10;;;;;;5111805;28;20420;-81
2023/01/04 10:48:39;;;;;;;12.20;7.15;;;-1.90;96.80;;;;;;5092706;28;20099;-82
2023/01/04 10:51:06;;;;;;;9.50;6.43;;;-2.00;96.80;;;;;;5102220;28;20040;-80
2023/01/04 10:53:50;;;;;;;9.77;6.20;;;-2.10;97.00;;;;;;5100195;28;20077;-81
2023/01/04 10:56:20;;;;;;;10.65;6.88;;;-2.10;97.20;;;;;;5095942;28;20028;-81
2023/01/04 10:58:59;;;;;;;8.73;6.65;;;-2.10;97.10;;;;;;5099016;28;20054;-79
2023/01/04 11:01:32;;;;;;;12.32;7.43;;;-2.10;97.10;;;;;;5094852;28;20069;-82
2023/01/04 11:04:04;;;;;;;12.18;7.80;;;-2.10;97.20;;;;;;5093306;28;20020;-81
2023/01/04 11:06:42;;;;;;;12.65;8.88;;;-2.10;97.50;;;;;;5093323;28;20016;-82
2023/01/04 11:09:17;;;;;;;11.63;8.60;;;-2.00;97.50;;;;;;5094629;28;20044;-81
2023/01/04 11:11:45;;;;;;;11.57;8.68;;;-2.00;97.60;;;;;;5098892;28;20028;-81
2023/01/04 11:14:12;;;;;;;13.35;7.38;;;-2.00;97.50;;;;;;5103003;28;20019;-81
2023/01/04 11:16:47;;;;;;;10.05;7.32;;;-2.00;97.50;;;;;;5101570;28;20027;-82
2023/01/04 11:19:14;;;;;;;12.23;6.97;;;-2.00;97.70;;;;;;5096956;28;20020;-82
2023/01/04 11:21:48;;;;;;;12.02;8.43;;;-2.00;97.80;;;;;;5112517;28;20544;-80
2023/01/04 11:24:15;;;;;;;8.52;6.00;;;-1.90;98.10;;;;;;5091905;28;20028;-81
2023/01/04 11:26:44;;;;;;;7.75;5.60;;;-1.90;98.30;;;;;;5091999;28;20044;-81
2023/01/04 11:29:39;;;;;;;9.88;6.57;;;-1.80;98.20;;;;;;5103823;28;20023;-81
2023/01/04 11:32:22;;;;;;;11.18;5.80;;;-1.80;98.30;;;;;;5086224;28;20081;-81
2023/01/04 11:34:53;;;;;;;6.45;4.75;;;-1.80;98.10;;;;;;5112716;28;20016;-81
2023/01/04 11:37:29;;;;;;;6.43;4.80;;;-1.80;97.80;;;;;;5103525;28;20077;-82
2023/01/04 11:40:17;;;;;;;12.15;5.22;;;-1.90;97.60;;;;;;5093790;28;20513;-82
2023/01/04 11:42:48;;;;;;;7.90;4.30;;;-1.90;97.50;;;;;;5120648;28;20027;-80
2023/01/04 11:45:24;;;;;;;4.50;3.20;;;-1.90;97.50;;;;;;5100027;28;20057;-80
2023/01/04 11:47:58;;;;;;;8.63;4.50;;;-2.00;97.10;;;;;;5112090;28;20028;-81
2023/01/04 11:50:34;;;;;;;8.10;4.97;;;-2.10;97.00;;;;;;5083639;28;20024;-81
2023/01/04 11:53:00;;;;;;;7.28;5.20;;;-2.10;97.20;;;;;;5101456;28;20035;-80
2023/01/04 11:55:29;;;;;;;4.15;3.03;;;-2.00;97.40;;;;;;5097040;28;20590;-79
2023/01/04 11:58:11;;;;;;;3.28;2.05;;;-2.00;97.50;;;;;;5112271;28;20020;-82
2023/01/04 12:00:38;;;;;;;7.13;4.38;;;-2.10;97.10;;;;;;5082162;28;20361;-82
2023/01/04 12:03:16;;;;;;;4.97;3.33;;;-2.10;97.30;;;;;;5112782;28;20020;-81
2023/01/04 12:05:42;;;;;;;3.95;2.85;;;-2.10;97.50;;;;;;5110906;28;20032;-81
2023/01/04 12:08:34;;;;;;;3.63;2.45;;;-2.10;97.10;;;;;;5112454;28;20016;-80
2023/01/04 12:11:05;;;;;;;7.18;2.88;;;-2.20;96.60;;;;;;5105857;28;20073;-82
2023/01/04 12:13:32;;;;;;;5.32;3.03;;;-2.20;96.70;;;;;;5110876;28;20124;-81
2023/01/04 12:16:18;;;;;;;4.38;2.95;;;-2.20;96.80;;;;;;5098427;28;20023;-81
2023/01/04 12:18:45;;;;;;;5.43;2.53;;;-2.10;96.90;;;;;;5112054;28;20089;-83
2023/01/04 12:21:19;;;;;;;2.65;2.00;;;-2.20;96.80;;;;;;5113526;28;20011;-81
2023/01/04 12:23:46;;;;;;;3.47;2.60;;;-2.20;96.80;;;;;;5101875;28;20032;-77
2023/01/04 12:26:12;;;;;;;4.55;2.42;;;-2.20;96.80;;;;;;5107442;28;20094;-80
2023/01/04 12:28:41;;;;;;;7.53;4.63;;;-2.20;97.00;;;;;;5106129;28;20545;-82
2023/01/04 12:31:19;;;;;;;4.28;2.63;;;-2.20;97.20;;;;;;5103127;28;20052;-80
2023/01/04 12:33:50;;;;;;;5.60;2.92;;;-2.10;97.30;;;;;;5089369;28;20020;-80
2023/01/04 12:36:41;;;;;;;12.63;7.05;;;-2.20;97.20;;;;;;5098698;28;21768;-82
2023/01/04 12:39:13;;;;;;;23.58;11.85;;;-2.10;97.30;;;;;;5097957;28;20421;-81
2023/01/04 12:41:39;;;;;;;5.57;3.35;;;-2.10;97.40;;;;;;5095703;28;20055;-81
2023/01/04 12:44:39;;;;;;;4.10;3.25;;;-2.00;97.50;;;;;;5096520;28;20100;-81
2023/01/04 12:50:15;;;;;;;5.63;3.30;;;-1.90;97.50;;;;;;5088369;28;20036;-82
2023/01/04 12:52:48;;;;;;;3.85;2.92;;;-1.90;97.20;;;;;;5096445;28;20027;-80
2023/01/04 12:55:32;;;;;;;8.07;4.55;;;-1.90;97.30;;;;;;5096137;28;20024;-82
2023/01/04 12:58:00;;;;;;;5.30;3.88;;;-2.00;97.40;;;;;;5095183;28;20392;-81
2023/01/04 13:00:51;;;;;;;5.60;3.25;;;-2.00;97.50;;;;;;5095110;28;20031;-84
2023/01/04 13:03:19;;;;;;;5.32;4.15;;;-1.90;97.80;;;;;;5096772;28;20050;-82
2023/01/04 13:06:04;;;;;;;5.90;3.85;;;-1.80;97.90;;;;;;5099694;28;20024;-82
2023/01/04 13:08:32;;;;;;;5.10;3.15;;;-1.70;98.00;;;;;;5106738;28;20020;-82
2023/01/04 13:10:59;;;;;;;3.92;2.55;;;-1.80;97.80;;;;;;5104992;28;20035;-82
2023/01/04 13:13:31;;;;;;;;;;;-1.80;97.80;;;;;;5114749;28;20020;-81
2023/01/04 13:16:29;;;;;;;4.57;3.30;;;-1.80;97.90;;;;;;5090758;28;19952;-82
2023/01/04 13:19:03;;;;;;;5.50;3.85;;;-1.80;97.90;;;;;;5107448;28;20024;-82
2023/01/04 13:21:41;;;;;;;4.38;2.47;;;-1.80;98.10;;;;;;5095147;28;20024;-80
2023/01/04 13:24:27;;;;;;;5.13;2.92;;;-1.80;98.20;;;;;;5094867;28;20103;-81
2023/01/04 13:26:54;;;;;;;3.92;2.63;;;-1.90;98.10;;;;;;5094498;28;20040;-81
2023/01/04 13:29:35;;;;;;;2.33;1.67;;;-1.90;98.20;;;;;;5096656;28;20052;-80
2023/01/04 13:32:13;;;;;;;3.58;1.90;;;-1.90;98.30;;;;;;5100148;28;20036;-82
2023/01/04 13:34:48;;;;;;;6.75;2.72;;;-1.90;98.20;;;;;;5083622;28;20054;-82
2023/01/04 13:37:25;;;;;;;4.68;1.70;;;-2.00;98.30;;;;;;5097296;28;20034;-80
2023/01/04 13:40:10;;;;;;;5.43;2.35;;;-2.00;98.20;;;;;;5092655;28;20075;-82
2023/01/04 13:42:41;;;;;;;2.72;1.80;;;-2.00;98.10;;;;;;5107857;28;20024;-82
2023/01/04 13:45:21;;;;;;;1.77;1.42;;;-2.00;98.30;;;;;;5107421;28;20043;-81
2023/01/04 13:47:51;;;;;;;2.80;1.38;;;-2.00;98.30;;;;;;5106182;28;20020;-81
2023/01/04 13:50:38;;;;;;;3.25;2.28;;;-2.00;98.10;;;;;;5095007;28;20031;-81
2023/01/04 13:53:05;;;;;;;3.08;2.28;;;-2.00;98.10;;;;;;5094092;28;20085;-81
2023/01/04 13:55:33;;;;;;;4.25;2.28;;;-2.10;98.00;;;;;;5096077;28;20073;-81
2023/01/04 13:58:04;;;;;;;3.85;2.45;;;-2.10;98.10;;;;;;5095720;28;20070;-82
2023/01/04 14:00:33;;;;;;;2.97;1.92;;;-2.20;98.00;;;;;;5086948;28;20427;-82
2023/01/04 14:03:31;;;;;;;3.50;1.88;;;-2.20;98.00;;;;;;5075238;28;20114;-84
2023/01/04 14:06:08;;;;;;;5.60;2.50;;;-2.20;98.10;;;;;;5104604;28;20026;-83
2023/01/04 14:08:43;;;;;;;4.65;2.60;;;-2.20;98.20;;;;;;5094817;28;20035;-82
2023/01/04 14:14:23;;;;;;;5.00;2.45;;;-2.20;98.40;;;;;;5102733;28;20084;-83
2023/01/04 14:16:50;;;;;;;2.95;2.63;;;-2.10;98.40;;;;;;5098732;28;20471;-81
2023/01/04 14:19:40;;;;;;;4.15;2.80;;;-2.10;98.40;;;;;;5098860;28;20144;-83
2023/01/04 14:22:33;;;;;;;4.30;2.75;;;-2.10;98.40;;;;;;5120679;28;20030;-83
2023/01/04 14:25:21;;;;;;;2.10;1.77;;;-2.10;98.40;;;;;;5109476;28;20023;-82